createdAt,value
2022-12-27T16:09:19.223Z,9.35
2022-12-27T16:10:33.562Z,11.10
2022-12-27T16:12:02.228Z,12.71
2022-12-27T16:13:12.917Z,13.95
2022-12-27T16:14:29.086Z,15.05
2022-12-27T16:15:54.440Z,16.28
2022-12-27T16:17:07.235Z,17.12
2022-12-27T16:18:31.603Z,18.10
2022-12-27T16:19:41.427Z,18.73
2022-12-27T16:20:55.335Z,19.39
2022-12-27T16:22:55.202Z,20.31
2022-12-27T16:24:14.165Z,20.77
2022-12-27T16:25:18.975Z,21.23
2022-12-27T16:26:25.272Z,21.58
2022-12-27T16:27:33.010Z,21.92
2022-12-27T16:28:37.292Z,22.21
2022-12-27T16:29:44.640Z,22.49
2022-12-27T16:30:50.010Z,22.73
2022-12-27T16:32:11.200Z,22.93
2022-12-27T16:33:34.948Z,23.22
2022-12-27T16:34:36.605Z,23.43
2022-12-27T16:35:38.505Z,23.62
2022-12-27T16:36:48.220Z,23.78
2022-12-27T16:37:54.948Z,23.94
2022-12-27T16:39:14.628Z,24.10
2022-12-27T16:40:44.859Z,24.26
2022-12-27T16:41:58.515Z,24.39
2022-12-27T16:43:09.210Z,24.49
2022-12-27T16:44:26.340Z,24.62
2022-12-27T16:45:49.591Z,24.71
2022-12-27T16:47:09.792Z,24.83
2022-12-27T16:48:34.662Z,24.94
2022-12-27T16:50:00.371Z,25.02
2022-12-27T16:51:16.939Z,25.10
2022-12-27T16:52:47.370Z,25.17
2022-12-27T16:54:00.522Z,25.23
2022-12-27T16:55:23.235Z,25.27
2022-12-27T16:56:28.533Z,25.30
2022-12-27T16:57:41.545Z,25.36
2022-12-27T16:58:43.635Z,25.38
2022-12-27T17:00:04.129Z,25.44
2022-12-27T17:01:26.920Z,25.46
2022-12-27T17:02:40.982Z,25.54
2022-12-27T17:03:45.063Z,25.56
2022-12-27T17:04:50.393Z,25.65
2022-12-27T17:06:30.778Z,25.67
2022-12-27T17:07:37.096Z,25.74
2022-12-27T17:08:38.928Z,25.76
2022-12-27T17:09:41.931Z,25.79
2022-12-27T17:10:55.292Z,25.87
2022-12-27T17:11:56.924Z,25.93
2022-12-27T17:13:13.426Z,25.99
2022-12-27T17:14:25.359Z,26.05
2022-12-27T17:15:29.274Z,26.10
2022-12-27T17:16:48.197Z,26.15
2022-12-27T17:17:58.939Z,26.17
2022-12-27T17:19:05.158Z,26.21
2022-12-27T17:20:16.616Z,26.24
2022-12-27T17:21:30.527Z,26.25
2022-12-27T17:22:35.882Z,26.25
2022-12-27T17:23:40.407Z,26.27
2022-12-27T17:24:45.362Z,26.27
2022-12-27T17:25:58.879Z,26.26
2022-12-27T17:27:15.708Z,26.28
2022-12-27T17:28:30.645Z,26.27
2022-12-27T17:30:09.972Z,26.27
2022-12-27T17:31:22.712Z,26.22
2022-12-27T17:32:58.371Z,26.21
2022-12-27T17:34:11.328Z,26.19
2022-12-27T17:35:12.974Z,26.17
2022-12-27T17:36:34.844Z,26.13
2022-12-27T17:38:05.150Z,26.12
2022-12-27T17:39:24.978Z,26.12
2022-12-27T17:40:35.532Z,26.10
2022-12-27T17:42:14.792Z,26.09
2022-12-27T17:43:38.003Z,26.08
2022-12-27T17:44:56.081Z,26.10
2022-12-27T17:46:17.861Z,26.14
2022-12-27T17:48:00.053Z,26.25
2022-12-27T17:49:02.161Z,26.33
2022-12-27T17:50:11.591Z,26.41
2022-12-27T17:51:18.712Z,26.45
2022-12-27T17:52:44.050Z,26.55
2022-12-27T17:54:06.490Z,26.66
2022-12-27T17:55:43.163Z,26.75
2022-12-27T17:57:04.582Z,26.86
2022-12-27T17:58:16.150Z,26.96
2022-12-27T17:59:25.707Z,27.04
2022-12-27T18:00:31.448Z,27.11
2022-12-27T18:01:43.673Z,27.14
2022-12-27T18:02:45.733Z,27.23
2022-12-27T18:03:48.789Z,27.30
2022-12-27T18:04:55.258Z,27.30
2022-12-27T18:05:57.405Z,27.39
2022-12-27T18:07:03.119Z,27.42
2022-12-27T18:08:08.506Z,27.47
2022-12-27T18:09:38.258Z,27.51
2022-12-27T18:10:41.511Z,27.57
2022-12-27T18:11:43.113Z,27.62
2022-12-27T18:12:49.396Z,27.65
2022-12-27T18:13:54.200Z,27.66
2022-12-27T18:15:01.139Z,27.72
2022-12-27T18:16:15.031Z,27.74
2022-12-27T18:17:28.748Z,27.76
2022-12-27T18:18:34.673Z,27.74
2022-12-27T18:19:36.270Z,27.77
2022-12-27T18:20:39.201Z,27.75
2022-12-27T18:21:54.846Z,27.77
2022-12-27T18:23:02.595Z,27.76
2022-12-27T18:24:23.677Z,27.74
2022-12-27T18:25:27.703Z,27.73
2022-12-27T18:26:39.268Z,27.72
2022-12-27T18:27:41.161Z,27.69
2022-12-27T18:28:43.351Z,27.68
2022-12-27T18:29:46.378Z,27.68
2022-12-27T18:30:50.871Z,27.68
2022-12-27T18:31:56.197Z,27.68
2022-12-27T18:32:59.217Z,27.67
2022-12-27T18:34:15.237Z,27.65
2022-12-27T18:35:24.091Z,27.64
2022-12-27T18:36:29.183Z,27.62
2022-12-27T18:37:35.383Z,27.60
2022-12-27T18:38:43.374Z,27.57
2022-12-27T18:40:04.862Z,27.54
2022-12-27T18:41:10.085Z,27.50
2022-12-27T18:42:37.838Z,27.46
2022-12-27T18:43:45.013Z,27.47
2022-12-27T18:44:54.798Z,27.45
2022-12-27T18:45:57.321Z,27.43
2022-12-27T18:47:02.381Z,27.42
2022-12-27T18:48:12.184Z,27.41
2022-12-27T18:49:43.984Z,27.41
2022-12-27T18:50:51.761Z,27.41
2022-12-27T18:51:55.147Z,27.38
2022-12-27T18:53:03.529Z,27.42
2022-12-27T18:54:21.960Z,27.44
2022-12-27T18:55:28.800Z,27.46
2022-12-27T18:56:33.163Z,27.47
2022-12-27T18:57:36.751Z,27.48
2022-12-27T18:58:38.443Z,27.48
2022-12-27T18:59:40.088Z,27.48
2022-12-27T19:00:51.693Z,27.49
2022-12-27T19:01:55.334Z,27.48
2022-12-27T19:03:18.848Z,27.48
2022-12-27T19:04:22.838Z,27.47
2022-12-27T19:05:28.001Z,27.46
2022-12-27T19:06:32.010Z,27.46
2022-12-27T19:07:34.051Z,27.48
2022-12-27T19:08:39.070Z,27.48
2022-12-27T19:10:01.881Z,27.49
2022-12-27T19:11:05.009Z,27.50
2022-12-27T19:12:21.305Z,27.51
2022-12-27T19:13:29.816Z,27.54
2022-12-27T19:14:41.810Z,27.34
2022-12-27T19:15:44.897Z,27.33
2022-12-27T19:16:59.073Z,27.53
2022-12-27T19:18:04.199Z,27.50
2022-12-27T19:19:18.328Z,27.51
2022-12-27T19:20:29.332Z,27.51
2022-12-27T19:21:35.320Z,27.52
2022-12-27T19:23:03.327Z,27.51
2022-12-27T19:24:23.615Z,27.52
2022-12-27T19:25:27.163Z,27.50
2022-12-27T19:26:32.449Z,27.51
2022-12-27T19:27:34.295Z,27.51
2022-12-27T19:28:36.637Z,27.52
2022-12-27T19:29:51.446Z,27.52
2022-12-27T19:31:18.592Z,27.49
2022-12-27T19:32:28.815Z,27.48
2022-12-27T19:33:34.568Z,27.48
2022-12-27T19:34:44.291Z,27.48
2022-12-27T19:35:46.208Z,27.47
2022-12-27T19:36:49.219Z,27.47
2022-12-27T19:37:50.928Z,27.48
2022-12-27T19:38:53.606Z,27.48
2022-12-27T19:39:55.472Z,27.46
2022-12-27T19:41:03.583Z,27.49
2022-12-27T19:42:08.484Z,27.42
2022-12-27T19:43:13.396Z,27.47
2022-12-27T19:44:15.424Z,27.44
2022-12-27T19:45:18.104Z,27.43
2022-12-27T19:46:19.950Z,27.43
2022-12-27T19:47:21.675Z,27.42
2022-12-27T19:48:23.298Z,27.40
2022-12-27T19:49:42.915Z,27.41
2022-12-27T19:50:51.599Z,27.41
2022-12-27T19:51:55.850Z,27.40
2022-12-27T19:52:58.967Z,27.39
2022-12-27T19:54:00.767Z,27.39
2022-12-27T19:55:07.212Z,27.33
2022-12-27T19:56:09.176Z,27.38
2022-12-27T19:57:12.372Z,27.32
2022-12-27T19:58:27.001Z,27.37
2022-12-27T19:59:28.727Z,27.35
2022-12-27T20:00:30.458Z,27.34
2022-12-27T20:01:32.349Z,27.32
2022-12-27T20:02:34.304Z,27.30
2022-12-27T20:03:36.512Z,27.29
2022-12-27T20:04:38.212Z,27.27
2022-12-27T20:06:13.839Z,27.27
2022-12-27T20:07:02.943Z,27.24
2022-12-27T20:08:06.342Z,27.20
2022-12-27T20:09:15.257Z,27.21
2022-12-27T20:10:17.367Z,27.19
2022-12-27T20:11:23.516Z,27.19
2022-12-27T20:12:25.691Z,27.17
2022-12-27T20:13:28.443Z,27.10
2022-12-27T20:14:30.086Z,27.12
2022-12-27T20:15:31.978Z,27.10
2022-12-27T20:16:34.092Z,27.08
2022-12-27T20:17:41.072Z,27.06
2022-12-27T20:18:46.904Z,27.04
2022-12-27T20:19:48.741Z,27.02
2022-12-27T20:20:51.241Z,27.00
2022-12-27T20:21:52.911Z,27.00
2022-12-27T20:22:54.664Z,26.99
2022-12-27T20:23:56.306Z,26.98
2022-12-27T20:24:57.870Z,26.96
2022-12-27T20:25:59.922Z,26.94
2022-12-27T20:27:01.824Z,26.91
2022-12-27T20:28:03.547Z,26.90
2022-12-27T20:29:05.401Z,26.87
2022-12-27T20:30:07.623Z,26.86
2022-12-27T20:31:12.273Z,26.84
2022-12-27T20:32:13.868Z,26.82
2022-12-27T20:33:16.262Z,26.79
2022-12-27T20:34:18.630Z,26.78
2022-12-27T20:35:20.275Z,26.76
2022-12-27T20:36:22.873Z,26.76
2022-12-27T20:37:25.089Z,26.72
2022-12-27T20:38:26.989Z,26.71
2022-12-27T20:39:28.684Z,26.68
2022-12-27T20:40:30.452Z,26.66
2022-12-27T20:41:32.103Z,26.64
2022-12-27T20:42:34.037Z,26.61
2022-12-27T20:43:36.199Z,26.57
2022-12-27T20:44:40.117Z,26.53
2022-12-27T20:45:41.692Z,26.48
2022-12-27T20:46:43.385Z,26.43
2022-12-27T20:47:45.062Z,26.39
2022-12-27T20:48:47.336Z,26.38
2022-12-27T20:49:48.919Z,26.34
2022-12-27T20:50:51.087Z,26.32
2022-12-27T20:51:53.000Z,26.28
2022-12-27T20:52:54.870Z,26.25
2022-12-27T20:53:58.321Z,26.22
2022-12-27T20:55:00.474Z,26.12
2022-12-27T20:56:04.036Z,26.15
2022-12-27T20:57:05.789Z,26.15
2022-12-27T20:58:07.548Z,26.12
2022-12-27T20:59:09.266Z,26.09
2022-12-27T21:00:12.257Z,26.06
2022-12-27T21:01:16.963Z,26.05
2022-12-27T21:02:19.825Z,25.97
2022-12-27T21:03:21.843Z,26.01
2022-12-27T21:04:23.574Z,25.99
2022-12-27T21:05:25.239Z,25.98
2022-12-27T21:06:28.477Z,25.97
2022-12-27T21:07:30.111Z,25.95
2022-12-27T21:08:40.367Z,25.94
2022-12-27T21:09:46.507Z,25.96
2022-12-27T21:10:48.705Z,25.94
2022-12-27T21:11:53.332Z,25.94
2022-12-27T21:12:54.959Z,25.89
2022-12-27T21:13:57.383Z,25.85
2022-12-27T21:14:59.189Z,25.81
2022-12-27T21:16:00.982Z,25.77
2022-12-27T21:17:03.163Z,25.74
2022-12-27T21:18:05.692Z,25.69
2022-12-27T21:19:07.756Z,25.67
2022-12-27T21:20:11.236Z,25.64
2022-12-27T21:21:19.307Z,25.61
2022-12-27T21:22:21.384Z,25.57
2022-12-27T21:23:23.108Z,25.51
2022-12-27T21:24:24.752Z,25.43
2022-12-27T21:25:26.678Z,25.46
2022-12-27T21:26:30.727Z,25.44
2022-12-27T21:27:32.508Z,25.43
2022-12-27T21:28:34.837Z,25.41
2022-12-27T21:29:36.601Z,25.38
2022-12-27T21:30:38.262Z,25.35
2022-12-27T21:31:40.161Z,25.34
2022-12-27T21:32:41.693Z,25.31
2022-12-27T21:33:43.792Z,25.30
2022-12-27T21:34:45.766Z,25.27
2022-12-27T21:35:56.176Z,25.26
2022-12-27T21:36:57.831Z,25.23
2022-12-27T21:37:59.627Z,25.21
2022-12-27T21:39:02.156Z,25.19
2022-12-27T21:40:04.097Z,25.18
2022-12-27T21:41:09.702Z,25.15
2022-12-27T21:42:12.511Z,25.14
2022-12-27T21:43:14.367Z,25.12
2022-12-27T21:44:16.646Z,25.10
2022-12-27T21:45:18.604Z,25.09
2022-12-27T21:46:22.208Z,25.06
2022-12-27T21:47:24.129Z,25.00
2022-12-27T21:48:25.932Z,25.00
2022-12-27T21:49:27.760Z,24.96
2022-12-27T21:50:35.384Z,25.00
2022-12-27T21:51:40.527Z,24.98
2022-12-27T21:52:42.426Z,24.93
2022-12-27T21:53:44.889Z,24.94
2022-12-27T21:54:46.715Z,24.93
2022-12-27T21:55:48.542Z,24.89
2022-12-27T21:56:51.114Z,24.90
2022-12-27T21:57:52.695Z,24.88
2022-12-27T21:58:58.309Z,24.86
2022-12-27T22:00:00.069Z,24.85
2022-12-27T22:01:09.379Z,24.84
2022-12-27T22:02:11.332Z,24.81
2022-12-27T22:03:13.555Z,24.80
2022-12-27T22:04:15.373Z,24.78
2022-12-27T22:05:17.490Z,24.76
2022-12-27T22:06:26.544Z,24.74
2022-12-27T22:07:28.397Z,24.70
2022-12-27T22:08:31.165Z,24.72
2022-12-27T22:09:32.702Z,24.70
2022-12-27T22:10:34.264Z,24.68
2022-12-27T22:11:37.700Z,24.66
2022-12-27T22:12:39.567Z,24.68
2022-12-27T22:13:42.494Z,24.67
2022-12-27T22:14:44.523Z,24.65
2022-12-27T22:15:57.685Z,24.63
2022-12-27T22:17:00.585Z,24.61
2022-12-27T22:18:02.259Z,24.61
2022-12-27T22:19:12.192Z,24.59
2022-12-27T22:20:13.843Z,24.53
2022-12-27T22:21:18.520Z,24.57
2022-12-27T22:22:20.286Z,24.54
2022-12-27T22:23:21.879Z,24.53
2022-12-27T22:24:23.596Z,24.50
2022-12-27T22:25:25.311Z,24.51
2022-12-27T22:26:39.180Z,24.49
2022-12-27T22:27:40.849Z,24.48
2022-12-27T22:28:42.934Z,24.45
2022-12-27T22:29:44.688Z,24.46
2022-12-27T22:30:46.693Z,24.43
2022-12-27T22:31:48.310Z,24.42
2022-12-27T22:32:50.099Z,24.39
2022-12-27T22:33:52.378Z,24.41
2022-12-27T22:34:54.085Z,24.40
2022-12-27T22:36:04.922Z,24.40
2022-12-27T22:37:06.555Z,24.36
2022-12-27T22:38:08.159Z,24.34
2022-12-27T22:39:09.984Z,24.31
2022-12-27T22:40:26.959Z,24.33
2022-12-27T22:41:35.293Z,24.32
2022-12-27T22:42:37.170Z,24.31
2022-12-27T22:43:40.346Z,24.29
2022-12-27T22:44:43.746Z,24.28
2022-12-27T22:45:50.316Z,24.27
2022-12-27T22:47:25.064Z,24.25
2022-12-27T22:48:20.750Z,24.22
2022-12-27T22:49:22.475Z,24.20
2022-12-27T22:50:24.096Z,24.20
2022-12-27T22:51:29.283Z,24.19
2022-12-27T22:52:30.986Z,24.18
2022-12-27T22:53:32.877Z,24.17
2022-12-27T22:55:05.114Z,24.15
2022-12-27T22:55:56.655Z,24.15
2022-12-27T22:56:58.310Z,24.13
2022-12-27T22:58:00.288Z,24.13
2022-12-27T22:59:05.509Z,24.11
2022-12-27T23:00:12.466Z,24.10
2022-12-27T23:01:17.199Z,24.08
2022-12-27T23:02:19.062Z,24.08
2022-12-27T23:03:20.785Z,24.04
2022-12-27T23:04:22.593Z,24.06
2022-12-27T23:05:24.307Z,24.04
2022-12-27T23:06:27.657Z,23.98
2022-12-27T23:08:04.721Z,24.02
2022-12-27T23:08:51.545Z,24.00
2022-12-27T23:09:53.221Z,23.97
2022-12-27T23:11:00.809Z,23.98
2022-12-27T23:12:02.550Z,23.96
2022-12-27T23:13:04.297Z,23.96
2022-12-27T23:14:11.876Z,23.95
2022-12-27T23:15:13.669Z,23.93
2022-12-27T23:16:15.685Z,23.89
2022-12-27T23:17:17.445Z,23.92
2022-12-27T23:18:19.082Z,23.89
2022-12-27T23:19:24.688Z,23.84
2022-12-27T23:20:26.712Z,23.88
2022-12-27T23:21:28.575Z,23.86
2022-12-27T23:22:30.168Z,23.86
2022-12-27T23:23:34.305Z,23.85
2022-12-27T23:24:36.072Z,23.84
2022-12-27T23:25:38.004Z,23.83
2022-12-27T23:26:40.151Z,23.81
2022-12-27T23:27:41.733Z,23.81
2022-12-27T23:28:45.121Z,23.81
2022-12-27T23:29:46.995Z,23.77
2022-12-27T23:30:50.178Z,23.79
2022-12-27T23:31:55.275Z,23.78
2022-12-27T23:32:57.656Z,23.76
2022-12-27T23:33:59.775Z,23.74
2022-12-27T23:35:01.433Z,23.55
2022-12-27T23:36:03.448Z,23.73
2022-12-27T23:37:05.424Z,23.72
2022-12-27T23:38:07.145Z,23.71
2022-12-27T23:39:08.907Z,23.70
2022-12-27T23:40:11.125Z,23.69
2022-12-27T23:41:24.862Z,23.66
2022-12-27T23:42:26.602Z,23.66
2022-12-27T23:43:51.568Z,23.66
2022-12-27T23:44:54.328Z,23.65
2022-12-27T23:45:55.986Z,23.65
2022-12-27T23:46:57.605Z,23.62
2022-12-27T23:47:59.291Z,23.63
2022-12-27T23:49:02.923Z,23.61
2022-12-27T23:50:06.028Z,23.61
2022-12-27T23:51:08.227Z,23.60
2022-12-27T23:52:09.996Z,23.59
2022-12-27T23:53:11.666Z,23.59
2022-12-27T23:54:13.247Z,23.57
2022-12-27T23:55:14.999Z,23.56
2022-12-27T23:56:19.708Z,23.53
2022-12-27T23:57:22.692Z,23.54
2022-12-27T23:58:24.801Z,23.53
2022-12-27T23:59:27.948Z,23.53
